Troy, Virginia
Current Conditions -  °F | °C
As of 9:35 AM on Tuesday 21 Oct 2014 (Local Time) from KGVE Reporting Station
Broken Clouds Broken Clouds  
Wind Chill: 58°   Ceiling: 12000
Heat Index: 58°   Visibility: 10mi
Dew Point: 50°   Wind: 3mph
Humidity: 74%   Direction: 220°SW
Pressure: 29.88"   Gusts: NA
Location:  37.99°N, 78.25°W
Report Text: KGVE 211335Z AUTO 22003KT 10SM BKN120 15/10 A2988 RMK AO1 T01470102
Loading
Personal Weather Stations






























Interactive Weather Map
Tropical Storm Tracking
New forecast layout! Learn more

10-Day Weather Forecast

Advertisements
Track Severe Weather on mobile